sensor_id;sensor_type;location;lat;lon;timestamp;P1;durP1;ratioP1;P2;durP2;ratioP2
42662;SDS011;44330;51.360;6.686;2023-04-03T00:02:05;11.05;;;5.65;;
42662;SDS011;44330;51.360;6.686;2023-04-03T00:04:30;9.25;;;5.88;;
42662;SDS011;44330;51.360;6.686;2023-04-03T00:06:56;12.48;;;6.70;;
42662;SDS011;44330;51.360;6.686;2023-04-03T00:09:22;11.90;;;5.95;;
42662;SDS011;44330;51.360;6.686;2023-04-03T00:11:47;11.65;;;6.57;;
42662;SDS011;44330;51.360;6.686;2023-04-03T00:14:13;10.38;;;6.60;;
42662;SDS011;44330;51.360;6.686;2023-04-03T00:16:38;13.05;;;7.00;;
42662;SDS011;44330;51.360;6.686;2023-04-03T00:19:04;12.85;;;6.57;;
42662;SDS011;44330;51.360;6.686;2023-04-03T00:21:30;13.98;;;7.30;;
42662;SDS011;44330;51.360;6.686;2023-04-03T00:23:56;12.45;;;6.90;;
42662;SDS011;44330;51.360;6.686;2023-04-03T00:26:22;9.55;;;6.13;;
42662;SDS011;44330;51.360;6.686;2023-04-03T00:28:47;14.57;;;6.85;;
42662;SDS011;44330;51.360;6.686;2023-04-03T00:31:16;12.38;;;6.38;;
42662;SDS011;44330;51.360;6.686;2023-04-03T00:33:42;11.60;;;6.57;;
42662;SDS011;44330;51.360;6.686;2023-04-03T00:36:08;10.60;;;6.35;;
42662;SDS011;44330;51.360;6.686;2023-04-03T00:38:35;10.95;;;7.00;;
42662;SDS011;44330;51.360;6.686;2023-04-03T00:41:01;10.75;;;6.07;;
42662;SDS011;44330;51.360;6.686;2023-04-03T00:43:27;17.45;;;6.65;;
42662;SDS011;44330;51.360;6.686;2023-04-03T00:45:54;9.50;;;6.28;;
42662;SDS011;44330;51.360;6.686;2023-04-03T00:48:22;11.07;;;6.37;;
42662;SDS011;44330;51.360;6.686;2023-04-03T00:51:01;10.45;;;6.60;;
42662;SDS011;44330;51.360;6.686;2023-04-03T00:53:33;14.63;;;6.50;;
42662;SDS011;44330;51.360;6.686;2023-04-03T00:56:04;13.30;;;6.05;;
42662;SDS011;44330;51.360;6.686;2023-04-03T00:58:37;15.55;;;6.43;;
42662;SDS011;44330;51.360;6.686;2023-04-03T01:01:07;11.00;;;6.05;;
42662;SDS011;44330;51.360;6.686;2023-04-03T01:03:37;12.25;;;6.90;;
42662;SDS011;44330;51.360;6.686;2023-04-03T01:06:03;11.27;;;6.55;;
42662;SDS011;44330;51.360;6.686;2023-04-03T01:08:29;14.55;;;6.72;;
42662;SDS011;44330;51.360;6.686;2023-04-03T01:10:55;13.40;;;6.38;;
42662;SDS011;44330;51.360;6.686;2023-04-03T01:13:28;14.30;;;7.40;;
42662;SDS011;44330;51.360;6.686;2023-04-03T01:15:56;12.98;;;6.47;;
42662;SDS011;44330;51.360;6.686;2023-04-03T01:18:25;12.50;;;6.35;;
42662;SDS011;44330;51.360;6.686;2023-04-03T01:23:53;14.35;;;7.20;;
42662;SDS011;44330;51.360;6.686;2023-04-03T01:26:36;19.70;;;8.27;;
42662;SDS011;44330;51.360;6.686;2023-04-03T01:29:02;17.42;;;7.32;;
42662;SDS011;44330;51.360;6.686;2023-04-03T01:31:31;13.07;;;7.13;;
42662;SDS011;44330;51.360;6.686;2023-04-03T01:34:12;16.15;;;7.22;;
42662;SDS011;44330;51.360;6.686;2023-04-03T01:36:37;14.38;;;8.32;;
42662;SDS011;44330;51.360;6.686;2023-04-03T01:39:03;14.77;;;8.40;;
42662;SDS011;44330;51.360;6.686;2023-04-03T01:41:29;25.95;;;8.80;;
42662;SDS011;44330;51.360;6.686;2023-04-03T01:43:54;19.15;;;8.43;;
42662;SDS011;44330;51.360;6.686;2023-04-03T01:46:20;15.90;;;8.15;;
42662;SDS011;44330;51.360;6.686;2023-04-03T01:48:46;23.13;;;9.65;;
42662;SDS011;44330;51.360;6.686;2023-04-03T01:51:11;22.20;;;7.53;;
42662;SDS011;44330;51.360;6.686;2023-04-03T01:53:37;17.92;;;6.75;;
42662;SDS011;44330;51.360;6.686;2023-04-03T01:56:03;18.08;;;7.47;;
42662;SDS011;44330;51.360;6.686;2023-04-03T01:58:29;18.33;;;7.00;;
42662;SDS011;44330;51.360;6.686;2023-04-03T02:00:55;25.10;;;6.68;;
42662;SDS011;44330;51.360;6.686;2023-04-03T02:03:21;20.90;;;7.00;;
42662;SDS011;44330;51.360;6.686;2023-04-03T02:05:46;22.92;;;9.57;;
42662;SDS011;44330;51.360;6.686;2023-04-03T02:08:12;25.50;;;8.68;;
42662;SDS011;44330;51.360;6.686;2023-04-03T02:10:38;26.27;;;10.55;;
42662;SDS011;44330;51.360;6.686;2023-04-03T02:13:04;22.30;;;8.90;;
42662;SDS011;44330;51.360;6.686;2023-04-03T02:15:30;19.92;;;6.80;;
42662;SDS011;44330;51.360;6.686;2023-04-03T02:17:55;20.33;;;7.38;;
42662;SDS011;44330;51.360;6.686;2023-04-03T02:20:21;31.65;;;10.77;;
42662;SDS011;44330;51.360;6.686;2023-04-03T02:22:46;45.70;;;17.27;;
42662;SDS011;44330;51.360;6.686;2023-04-03T02:25:12;46.60;;;16.75;;
42662;SDS011;44330;51.360;6.686;2023-04-03T02:27:38;28.98;;;10.63;;
42662;SDS011;44330;51.360;6.686;2023-04-03T02:30:04;41.58;;;10.63;;
42662;SDS011;44330;51.360;6.686;2023-04-03T02:32:30;29.38;;;7.43;;
42662;SDS011;44330;51.360;6.686;2023-04-03T02:34:56;19.63;;;6.40;;
42662;SDS011;44330;51.360;6.686;2023-04-03T02:37:21;25.55;;;7.75;;
42662;SDS011;44330;51.360;6.686;2023-04-03T02:39:47;22.75;;;7.68;;
42662;SDS011;44330;51.360;6.686;2023-04-03T02:42:12;22.73;;;6.55;;
42662;SDS011;44330;51.360;6.686;2023-04-03T02:44:38;13.02;;;5.18;;
42662;SDS011;44330;51.360;6.686;2023-04-03T02:47:04;19.15;;;5.60;;
42662;SDS011;44330;51.360;6.686;2023-04-03T02:49:30;19.65;;;7.60;;
42662;SDS011;44330;51.360;6.686;2023-04-03T02:51:55;53.50;;;17.08;;
42662;SDS011;44330;51.360;6.686;2023-04-03T02:54:21;58.47;;;20.60;;
42662;SDS011;44330;51.360;6.686;2023-04-03T02:56:48;60.42;;;20.65;;
42662;SDS011;44330;51.360;6.686;2023-04-03T02:59:15;45.10;;;14.18;;
42662;SDS011;44330;51.360;6.686;2023-04-03T03:01:40;32.20;;;11.20;;
42662;SDS011;44330;51.360;6.686;2023-04-03T03:04:06;32.13;;;10.40;;
42662;SDS011;44330;51.360;6.686;2023-04-03T03:06:32;27.90;;;9.82;;
42662;SDS011;44330;51.360;6.686;2023-04-03T03:08:57;31.92;;;9.77;;
42662;SDS011;44330;51.360;6.686;2023-04-03T03:11:23;36.70;;;9.75;;
42662;SDS011;44330;51.360;6.686;2023-04-03T03:13:48;20.73;;;6.82;;
42662;SDS011;44330;51.360;6.686;2023-04-03T03:16:14;15.43;;;6.43;;
42662;SDS011;44330;51.360;6.686;2023-04-03T03:18:40;24.40;;;6.28;;
42662;SDS011;44330;51.360;6.686;2023-04-03T03:21:05;20.63;;;5.88;;
42662;SDS011;44330;51.360;6.686;2023-04-03T03:23:31;25.48;;;4.53;;
42662;SDS011;44330;51.360;6.686;2023-04-03T03:26:02;17.00;;;4.18;;
42662;SDS011;44330;51.360;6.686;2023-04-03T03:28:30;33.38;;;7.22;;
42662;SDS011;44330;51.360;6.686;2023-04-03T03:30:56;34.08;;;9.20;;
42662;SDS011;44330;51.360;6.686;2023-04-03T03:33:22;25.50;;;8.23;;
42662;SDS011;44330;51.360;6.686;2023-04-03T03:35:48;30.77;;;9.70;;
42662;SDS011;44330;51.360;6.686;2023-04-03T03:38:14;40.47;;;15.10;;
42662;SDS011;44330;51.360;6.686;2023-04-03T03:40:40;44.45;;;16.45;;
42662;SDS011;44330;51.360;6.686;2023-04-03T03:43:07;28.58;;;8.40;;
42662;SDS011;44330;51.360;6.686;2023-04-03T03:45:32;24.35;;;7.13;;
42662;SDS011;44330;51.360;6.686;2023-04-03T03:47:58;23.85;;;8.20;;
42662;SDS011;44330;51.360;6.686;2023-04-03T03:50:24;30.60;;;10.70;;
42662;SDS011;44330;51.360;6.686;2023-04-03T03:52:50;23.48;;;7.90;;
42662;SDS011;44330;51.360;6.686;2023-04-03T03:55:15;15.13;;;4.80;;
42662;SDS011;44330;51.360;6.686;2023-04-03T03:57:41;15.00;;;4.80;;
42662;SDS011;44330;51.360;6.686;2023-04-03T04:00:07;16.42;;;4.30;;
42662;SDS011;44330;51.360;6.686;2023-04-03T04:02:33;16.10;;;6.05;;
42662;SDS011;44330;51.360;6.686;2023-04-03T04:04:59;21.48;;;7.40;;
42662;SDS011;44330;51.360;6.686;2023-04-03T04:07:24;52.33;;;19.20;;
42662;SDS011;44330;51.360;6.686;2023-04-03T04:09:53;105.03;;;36.07;;
42662;SDS011;44330;51.360;6.686;2023-04-03T04:12:18;88.25;;;24.58;;
42662;SDS011;44330;51.360;6.686;2023-04-03T04:14:44;38.30;;;9.85;;
42662;SDS011;44330;51.360;6.686;2023-04-03T04:17:11;22.70;;;6.65;;
42662;SDS011;44330;51.360;6.686;2023-04-03T04:19:37;25.23;;;9.13;;
42662;SDS011;44330;51.360;6.686;2023-04-03T04:22:03;32.92;;;9.73;;
42662;SDS011;44330;51.360;6.686;2023-04-03T04:24:29;39.17;;;12.15;;
42662;SDS011;44330;51.360;6.686;2023-04-03T04:26:54;44.53;;;17.20;;
42662;SDS011;44330;51.360;6.686;2023-04-03T04:29:20;68.20;;;19.38;;
42662;SDS011;44330;51.360;6.686;2023-04-03T04:31:45;26.77;;;7.85;;
42662;SDS011;44330;51.360;6.686;2023-04-03T04:34:11;24.63;;;5.22;;
42662;SDS011;44330;51.360;6.686;2023-04-03T04:36:38;14.95;;;5.28;;
42662;SDS011;44330;51.360;6.686;2023-04-03T04:39:04;19.67;;;7.55;;
42662;SDS011;44330;51.360;6.686;2023-04-03T04:41:30;23.38;;;8.30;;
42662;SDS011;44330;51.360;6.686;2023-04-03T04:43:56;27.92;;;7.13;;
42662;SDS011;44330;51.360;6.686;2023-04-03T04:46:22;18.92;;;5.78;;
42662;SDS011;44330;51.360;6.686;2023-04-03T04:48:48;12.60;;;4.40;;
42662;SDS011;44330;51.360;6.686;2023-04-03T04:51:13;15.05;;;4.60;;
42662;SDS011;44330;51.360;6.686;2023-04-03T04:53:39;18.15;;;5.30;;
42662;SDS011;44330;51.360;6.686;2023-04-03T04:56:06;24.75;;;6.95;;
42662;SDS011;44330;51.360;6.686;2023-04-03T04:58:35;40.08;;;13.50;;
42662;SDS011;44330;51.360;6.686;2023-04-03T05:01:04;65.25;;;21.33;;
42662;SDS011;44330;51.360;6.686;2023-04-03T05:03:32;70.32;;;17.58;;
42662;SDS011;44330;51.360;6.686;2023-04-03T05:05:58;35.13;;;9.50;;
42662;SDS011;44330;51.360;6.686;2023-04-03T05:08:24;27.50;;;7.75;;
42662;SDS011;44330;51.360;6.686;2023-04-03T05:10:49;32.55;;;8.82;;
42662;SDS011;44330;51.360;6.686;2023-04-03T05:13:15;47.55;;;13.13;;
42662;SDS011;44330;51.360;6.686;2023-04-03T05:15:41;35.92;;;11.15;;
42662;SDS011;44330;51.360;6.686;2023-04-03T05:18:07;45.97;;;17.83;;
42662;SDS011;44330;51.360;6.686;2023-04-03T05:20:32;25.38;;;8.13;;
42662;SDS011;44330;51.360;6.686;2023-04-03T05:22:59;26.58;;;6.97;;
42662;SDS011;44330;51.360;6.686;2023-04-03T05:25:24;14.70;;;4.38;;
42662;SDS011;44330;51.360;6.686;2023-04-03T05:27:50;16.95;;;5.45;;
42662;SDS011;44330;51.360;6.686;2023-04-03T05:30:16;13.35;;;4.10;;
42662;SDS011;44330;51.360;6.686;2023-04-03T05:32:42;19.67;;;5.45;;
42662;SDS011;44330;51.360;6.686;2023-04-03T05:35:08;33.40;;;9.18;;
42662;SDS011;44330;51.360;6.686;2023-04-03T05:37:34;25.58;;;7.43;;
42662;SDS011;44330;51.360;6.686;2023-04-03T05:40:00;13.57;;;3.97;;
42662;SDS011;44330;51.360;6.686;2023-04-03T05:42:26;27.13;;;5.75;;
42662;SDS011;44330;51.360;6.686;2023-04-03T05:44:51;14.80;;;3.92;;
42662;SDS011;44330;51.360;6.686;2023-04-03T05:47:17;14.75;;;3.95;;
42662;SDS011;44330;51.360;6.686;2023-04-03T05:49:43;19.80;;;5.70;;
42662;SDS011;44330;51.360;6.686;2023-04-03T05:52:23;20.30;;;4.70;;
42662;SDS011;44330;51.360;6.686;2023-04-03T05:54:55;14.48;;;4.07;;
42662;SDS011;44330;51.360;6.686;2023-04-03T05:57:21;32.47;;;9.07;;
42662;SDS011;44330;51.360;6.686;2023-04-03T05:59:47;25.48;;;7.25;;
42662;SDS011;44330;51.360;6.686;2023-04-03T06:02:14;24.17;;;7.65;;
42662;SDS011;44330;51.360;6.686;2023-04-03T06:04:41;21.00;;;4.70;;
42662;SDS011;44330;51.360;6.686;2023-04-03T06:07:09;13.23;;;4.78;;
42662;SDS011;44330;51.360;6.686;2023-04-03T06:09:38;22.25;;;6.90;;
42662;SDS011;44330;51.360;6.686;2023-04-03T06:12:03;24.48;;;6.15;;
42662;SDS011;44330;51.360;6.686;2023-04-03T06:14:29;20.30;;;5.30;;
42662;SDS011;44330;51.360;6.686;2023-04-03T06:16:55;31.90;;;6.95;;
42662;SDS011;44330;51.360;6.686;2023-04-03T06:19:21;34.03;;;8.13;;
42662;SDS011;44330;51.360;6.686;2023-04-03T06:21:47;27.65;;;8.75;;
42662;SDS011;44330;51.360;6.686;2023-04-03T06:24:14;22.50;;;7.60;;
42662;SDS011;44330;51.360;6.686;2023-04-03T06:26:41;30.88;;;9.15;;
42662;SDS011;44330;51.360;6.686;2023-04-03T06:29:07;40.72;;;10.35;;
42662;SDS011;44330;51.360;6.686;2023-04-03T06:31:33;28.25;;;5.45;;
42662;SDS011;44330;51.360;6.686;2023-04-03T06:33:58;14.27;;;3.15;;
42662;SDS011;44330;51.360;6.686;2023-04-03T06:36:24;9.85;;;3.55;;
42662;SDS011;44330;51.360;6.686;2023-04-03T06:38:50;19.20;;;7.18;;
42662;SDS011;44330;51.360;6.686;2023-04-03T06:41:16;14.32;;;4.32;;
42662;SDS011;44330;51.360;6.686;2023-04-03T06:43:42;13.80;;;3.85;;
42662;SDS011;44330;51.360;6.686;2023-04-03T06:46:19;10.38;;;3.10;;
42662;SDS011;44330;51.360;6.686;2023-04-03T06:48:46;10.77;;;2.92;;
42662;SDS011;44330;51.360;6.686;2023-04-03T06:51:17;10.40;;;2.75;;
42662;SDS011;44330;51.360;6.686;2023-04-03T06:53:45;9.05;;;3.03;;
42662;SDS011;44330;51.360;6.686;2023-04-03T06:56:11;9.50;;;3.47;;
42662;SDS011;44330;51.360;6.686;2023-04-03T06:58:36;27.60;;;7.13;;
42662;SDS011;44330;51.360;6.686;2023-04-03T07:01:02;17.13;;;4.68;;
42662;SDS011;44330;51.360;6.686;2023-04-03T07:03:28;11.52;;;3.97;;
42662;SDS011;44330;51.360;6.686;2023-04-03T07:05:53;12.88;;;3.40;;
42662;SDS011;44330;51.360;6.686;2023-04-03T07:08:18;11.50;;;4.10;;
42662;SDS011;44330;51.360;6.686;2023-04-03T07:10:44;19.13;;;3.85;;
42662;SDS011;44330;51.360;6.686;2023-04-03T07:13:10;19.63;;;3.05;;
42662;SDS011;44330;51.360;6.686;2023-04-03T07:15:36;10.20;;;2.83;;
42662;SDS011;44330;51.360;6.686;2023-04-03T07:18:02;14.95;;;4.07;;
42662;SDS011;44330;51.360;6.686;2023-04-03T07:20:27;46.35;;;14.52;;
42662;SDS011;44330;51.360;6.686;2023-04-03T07:22:53;7.60;;;2.35;;
42662;SDS011;44330;51.360;6.686;2023-04-03T07:25:18;11.60;;;3.72;;
42662;SDS011;44330;51.360;6.686;2023-04-03T07:27:44;12.52;;;2.83;;
42662;SDS011;44330;51.360;6.686;2023-04-03T07:30:10;16.45;;;3.50;;
42662;SDS011;44330;51.360;6.686;2023-04-03T07:32:36;9.57;;;2.90;;
42662;SDS011;44330;51.360;6.686;2023-04-03T07:35:02;11.30;;;3.88;;
42662;SDS011;44330;51.360;6.686;2023-04-03T07:37:28;41.38;;;12.13;;
42662;SDS011;44330;51.360;6.686;2023-04-03T07:39:53;23.20;;;7.82;;
42662;SDS011;44330;51.360;6.686;2023-04-03T07:42:20;15.80;;;5.65;;
42662;SDS011;44330;51.360;6.686;2023-04-03T07:44:46;15.15;;;4.13;;
42662;SDS011;44330;51.360;6.686;2023-04-03T07:47:12;12.98;;;3.42;;
42662;SDS011;44330;51.360;6.686;2023-04-03T07:49:39;45.75;;;12.57;;
42662;SDS011;44330;51.360;6.686;2023-04-03T07:52:05;26.55;;;8.23;;
42662;SDS011;44330;51.360;6.686;2023-04-03T07:54:32;28.38;;;7.70;;
42662;SDS011;44330;51.360;6.686;2023-04-03T07:56:58;28.50;;;7.82;;
42662;SDS011;44330;51.360;6.686;2023-04-03T07:59:24;11.82;;;4.32;;
42662;SDS011;44330;51.360;6.686;2023-04-03T08:01:50;11.30;;;3.78;;
42662;SDS011;44330;51.360;6.686;2023-04-03T08:04:15;14.63;;;2.95;;
42662;SDS011;44330;51.360;6.686;2023-04-03T08:06:41;8.20;;;1.75;;
42662;SDS011;44330;51.360;6.686;2023-04-03T08:09:06;6.55;;;1.80;;
42662;SDS011;44330;51.360;6.686;2023-04-03T08:11:32;9.77;;;3.00;;
42662;SDS011;44330;51.360;6.686;2023-04-03T08:13:57;8.55;;;2.72;;
42662;SDS011;44330;51.360;6.686;2023-04-03T08:16:23;15.68;;;3.55;;
42662;SDS011;44330;51.360;6.686;2023-04-03T08:18:52;12.68;;;3.00;;
42662;SDS011;44330;51.360;6.686;2023-04-03T08:21:18;9.57;;;3.17;;
42662;SDS011;44330;51.360;6.686;2023-04-03T08:23:43;9.05;;;1.85;;
42662;SDS011;44330;51.360;6.686;2023-04-03T08:26:10;16.38;;;3.65;;
42662;SDS011;44330;51.360;6.686;2023-04-03T08:28:37;15.98;;;2.72;;
42662;SDS011;44330;51.360;6.686;2023-04-03T08:31:07;17.58;;;4.25;;
42662;SDS011;44330;51.360;6.686;2023-04-03T08:33:37;6.13;;;2.45;;
42662;SDS011;44330;51.360;6.686;2023-04-03T08:36:04;10.38;;;2.28;;
42662;SDS011;44330;51.360;6.686;2023-04-03T08:38:43;10.90;;;3.38;;
42662;SDS011;44330;51.360;6.686;2023-04-03T08:41:29;14.63;;;5.13;;
42662;SDS011;44330;51.360;6.686;2023-04-03T08:44:10;10.57;;;3.25;;
42662;SDS011;44330;51.360;6.686;2023-04-03T08:46:52;7.15;;;2.25;;
42662;SDS011;44330;51.360;6.686;2023-04-03T08:49:46;7.50;;;1.75;;
42662;SDS011;44330;51.360;6.686;2023-04-03T08:52:15;9.95;;;3.17;;
42662;SDS011;44330;51.360;6.686;2023-04-03T08:54:54;16.40;;;5.35;;
42662;SDS011;44330;51.360;6.686;2023-04-03T08:57:29;13.52;;;4.35;;
42662;SDS011;44330;51.360;6.686;2023-04-03T09:00:00;9.50;;;3.17;;
42662;SDS011;44330;51.360;6.686;2023-04-03T09:02:55;11.23;;;2.30;;
42662;SDS011;44330;51.360;6.686;2023-04-03T09:11:21;11.07;;;2.55;;
42662;SDS011;44330;51.360;6.686;2023-04-03T09:19:52;15.50;;;3.58;;
42662;SDS011;44330;51.360;6.686;2023-04-03T09:22:23;10.15;;;2.10;;
42662;SDS011;44330;51.360;6.686;2023-04-03T09:27:47;7.57;;;2.65;;
42662;SDS011;44330;51.360;6.686;2023-04-03T09:30:13;14.98;;;4.32;;
42662;SDS011;44330;51.360;6.686;2023-04-03T09:32:41;6.67;;;2.20;;
42662;SDS011;44330;51.360;6.686;2023-04-03T09:37:50;3.65;;;1.23;;
42662;SDS011;44330;51.360;6.686;2023-04-03T09:45:54;14.23;;;3.50;;
42662;SDS011;44330;51.360;6.686;2023-04-03T09:48:22;4.22;;;1.90;;
42662;SDS011;44330;51.360;6.686;2023-04-03T09:56:25;7.30;;;1.67;;
42662;SDS011;44330;51.360;6.686;2023-04-03T09:59:05;34.45;;;8.50;;
42662;SDS011;44330;51.360;6.686;2023-04-03T10:01:37;9.45;;;2.72;;
42662;SDS011;44330;51.360;6.686;2023-04-03T10:06:33;6.25;;;1.98;;
42662;SDS011;44330;51.360;6.686;2023-04-03T10:09:02;12.40;;;3.15;;
42662;SDS011;44330;51.360;6.686;2023-04-03T10:11:56;14.52;;;5.40;;
42662;SDS011;44330;51.360;6.686;2023-04-03T10:14:30;13.00;;;2.17;;
42662;SDS011;44330;51.360;6.686;2023-04-03T10:28:28;7.57;;;1.10;;
42662;SDS011;44330;51.360;6.686;2023-04-03T10:31:22;2.03;;;0.73;;
42662;SDS011;44330;51.360;6.686;2023-04-03T10:34:06;9.05;;;1.45;;
42662;SDS011;44330;51.360;6.686;2023-04-03T10:37:06;2.45;;;0.77;;
42662;SDS011;44330;51.360;6.686;2023-04-03T10:42:44;3.28;;;1.17;;
42662;SDS011;44330;51.360;6.686;2023-04-03T10:45:32;4.65;;;1.20;;
42662;SDS011;44330;51.360;6.686;2023-04-03T10:48:25;1.67;;;0.70;;
42662;SDS011;44330;51.360;6.686;2023-04-03T10:53:39;8.10;;;2.67;;
42662;SDS011;44330;51.360;6.686;2023-04-03T10:58:44;4.93;;;1.33;;
42662;SDS011;44330;51.360;6.686;2023-04-03T11:01:13;5.25;;;0.90;;
42662;SDS011;44330;51.360;6.686;2023-04-03T11:03:49;14.07;;;4.07;;
42662;SDS011;44330;51.360;6.686;2023-04-03T11:06:19;23.85;;;6.57;;
42662;SDS011;44330;51.360;6.686;2023-04-03T11:08:50;8.50;;;2.83;;
42662;SDS011;44330;51.360;6.686;2023-04-03T11:11:29;12.75;;;2.72;;
42662;SDS011;44330;51.360;6.686;2023-04-03T11:16:29;9.00;;;2.83;;
42662;SDS011;44330;51.360;6.686;2023-04-03T11:22:09;4.32;;;1.63;;
42662;SDS011;44330;51.360;6.686;2023-04-03T11:27:43;2.00;;;0.98;;
42662;SDS011;44330;51.360;6.686;2023-04-03T11:30:14;3.70;;;1.30;;
42662;SDS011;44330;51.360;6.686;2023-04-03T11:35:32;6.03;;;1.55;;
42662;SDS011;44330;51.360;6.686;2023-04-03T11:37:59;2.42;;;0.95;;
42662;SDS011;44330;51.360;6.686;2023-04-03T11:40:28;4.97;;;1.55;;
42662;SDS011;44330;51.360;6.686;2023-04-03T11:45:49;2.97;;;1.15;;
42662;SDS011;44330;51.360;6.686;2023-04-03T11:50:45;3.38;;;1.40;;
42662;SDS011;44330;51.360;6.686;2023-04-03T11:55:42;3.88;;;1.08;;
42662;SDS011;44330;51.360;6.686;2023-04-03T11:58:14;4.22;;;1.25;;
42662;SDS011;44330;51.360;6.686;2023-04-03T12:00:58;9.10;;;1.80;;
42662;SDS011;44330;51.360;6.686;2023-04-03T12:03:32;4.65;;;1.35;;
42662;SDS011;44330;51.360;6.686;2023-04-03T12:08:52;17.92;;;5.82;;
42662;SDS011;44330;51.360;6.686;2023-04-03T12:11:34;11.48;;;3.63;;
42662;SDS011;44330;51.360;6.686;2023-04-03T12:14:15;6.40;;;2.40;;
42662;SDS011;44330;51.360;6.686;2023-04-03T12:16:46;6.35;;;2.15;;
42662;SDS011;44330;51.360;6.686;2023-04-03T12:22:06;19.20;;;6.05;;
42662;SDS011;44330;51.360;6.686;2023-04-03T12:24:34;11.93;;;5.45;;
42662;SDS011;44330;51.360;6.686;2023-04-03T12:43:50;12.02;;;4.68;;
42662;SDS011;44330;51.360;6.686;2023-04-03T12:46:48;10.35;;;3.42;;
42662;SDS011;44330;51.360;6.686;2023-04-03T12:52:18;5.65;;;2.22;;
42662;SDS011;44330;51.360;6.686;2023-04-03T12:54:54;4.72;;;2.15;;
42662;SDS011;44330;51.360;6.686;2023-04-03T12:57:23;5.93;;;1.75;;
42662;SDS011;44330;51.360;6.686;2023-04-03T12:59:51;13.98;;;2.47;;
42662;SDS011;44330;51.360;6.686;2023-04-03T13:04:52;12.02;;;3.60;;
42662;SDS011;44330;51.360;6.686;2023-04-03T13:07:21;10.47;;;3.13;;
42662;SDS011;44330;51.360;6.686;2023-04-03T13:10:01;11.45;;;2.60;;
42662;SDS011;44330;51.360;6.686;2023-04-03T13:12:31;5.03;;;1.75;;
42662;SDS011;44330;51.360;6.686;2023-04-03T13:14:58;3.80;;;1.70;;
42662;SDS011;44330;51.360;6.686;2023-04-03T13:17:26;4.35;;;2.28;;
42662;SDS011;44330;51.360;6.686;2023-04-03T13:19:52;6.00;;;1.55;;
42662;SDS011;44330;51.360;6.686;2023-04-03T13:22:34;14.65;;;4.00;;
42662;SDS011;44330;51.360;6.686;2023-04-03T13:25:10;11.68;;;3.92;;
42662;SDS011;44330;51.360;6.686;2023-04-03T13:27:38;13.60;;;2.90;;
42662;SDS011;44330;51.360;6.686;2023-04-03T13:30:17;13.40;;;5.03;;
42662;SDS011;44330;51.360;6.686;2023-04-03T13:32:51;14.45;;;6.35;;
42662;SDS011;44330;51.360;6.686;2023-04-03T13:35:31;6.55;;;2.30;;
42662;SDS011;44330;51.360;6.686;2023-04-03T13:38:07;8.57;;;3.70;;
42662;SDS011;44330;51.360;6.686;2023-04-03T13:40:50;6.82;;;2.63;;
42662;SDS011;44330;51.360;6.686;2023-04-03T13:43:19;5.75;;;2.35;;
42662;SDS011;44330;51.360;6.686;2023-04-03T13:45:58;6.63;;;1.80;;
42662;SDS011;44330;51.360;6.686;2023-04-03T13:48:41;12.48;;;4.10;;
42662;SDS011;44330;51.360;6.686;2023-04-03T13:53:56;14.10;;;4.05;;
42662;SDS011;44330;51.360;6.686;2023-04-03T14:04:27;2.70;;;1.35;;
42662;SDS011;44330;51.360;6.686;2023-04-03T14:07:13;11.40;;;4.30;;
42662;SDS011;44330;51.360;6.686;2023-04-03T14:09:41;4.00;;;1.90;;
42662;SDS011;44330;51.360;6.686;2023-04-03T14:14:54;5.85;;;1.73;;
42662;SDS011;44330;51.360;6.686;2023-04-03T14:17:21;4.03;;;1.35;;
42662;SDS011;44330;51.360;6.686;2023-04-03T14:19:49;4.82;;;0.98;;
42662;SDS011;44330;51.360;6.686;2023-04-03T14:22:21;6.97;;;1.52;;
42662;SDS011;44330;51.360;6.686;2023-04-03T14:24:48;6.32;;;2.13;;
42662;SDS011;44330;51.360;6.686;2023-04-03T14:27:23;10.15;;;3.03;;
42662;SDS011;44330;51.360;6.686;2023-04-03T14:29:54;18.63;;;4.90;;
42662;SDS011;44330;51.360;6.686;2023-04-03T14:32:22;4.95;;;1.55;;
42662;SDS011;44330;51.360;6.686;2023-04-03T14:34:50;8.05;;;2.53;;
42662;SDS011;44330;51.360;6.686;2023-04-03T14:37:23;4.90;;;1.58;;
42662;SDS011;44330;51.360;6.686;2023-04-03T14:39:51;7.22;;;1.50;;
42662;SDS011;44330;51.360;6.686;2023-04-03T14:42:23;12.57;;;2.90;;
42662;SDS011;44330;51.360;6.686;2023-04-03T14:44:53;3.58;;;1.42;;
42662;SDS011;44330;51.360;6.686;2023-04-03T14:47:19;8.35;;;1.63;;
42662;SDS011;44330;51.360;6.686;2023-04-03T14:49:48;8.88;;;2.97;;
42662;SDS011;44330;51.360;6.686;2023-04-03T14:52:19;7.47;;;2.30;;
42662;SDS011;44330;51.360;6.686;2023-04-03T14:54:48;5.40;;;1.60;;
42662;SDS011;44330;51.360;6.686;2023-04-03T14:57:14;6.70;;;1.83;;
42662;SDS011;44330;51.360;6.686;2023-04-03T14:59:41;11.02;;;2.38;;
42662;SDS011;44330;51.360;6.686;2023-04-03T15:02:11;10.80;;;2.83;;
42662;SDS011;44330;51.360;6.686;2023-04-03T15:04:52;4.55;;;1.90;;
42662;SDS011;44330;51.360;6.686;2023-04-03T15:07:18;10.93;;;3.22;;
42662;SDS011;44330;51.360;6.686;2023-04-03T15:09:44;6.82;;;2.15;;
42662;SDS011;44330;51.360;6.686;2023-04-03T15:12:09;4.60;;;1.70;;
42662;SDS011;44330;51.360;6.686;2023-04-03T15:14:35;14.93;;;4.53;;
42662;SDS011;44330;51.360;6.686;2023-04-03T15:17:01;13.07;;;3.80;;
42662;SDS011;44330;51.360;6.686;2023-04-03T15:19:27;14.13;;;3.00;;
42662;SDS011;44330;51.360;6.686;2023-04-03T15:21:53;6.95;;;1.88;;
42662;SDS011;44330;51.360;6.686;2023-04-03T15:24:19;10.30;;;2.20;;
42662;SDS011;44330;51.360;6.686;2023-04-03T15:26:44;7.15;;;2.50;;
42662;SDS011;44330;51.360;6.686;2023-04-03T15:29:10;13.85;;;4.05;;
42662;SDS011;44330;51.360;6.686;2023-04-03T15:31:35;6.07;;;1.60;;
42662;SDS011;44330;51.360;6.686;2023-04-03T15:34:01;3.95;;;1.30;;
42662;SDS011;44330;51.360;6.686;2023-04-03T15:36:27;3.72;;;1.05;;
42662;SDS011;44330;51.360;6.686;2023-04-03T15:38:53;7.35;;;2.08;;
42662;SDS011;44330;51.360;6.686;2023-04-03T15:41:18;6.53;;;1.98;;
42662;SDS011;44330;51.360;6.686;2023-04-03T15:43:44;8.18;;;2.53;;
42662;SDS011;44330;51.360;6.686;2023-04-03T15:46:09;2.38;;;1.13;;
42662;SDS011;44330;51.360;6.686;2023-04-03T15:48:35;6.53;;;0.98;;
42662;SDS011;44330;51.360;6.686;2023-04-03T15:51:01;5.93;;;1.30;;
42662;SDS011;44330;51.360;6.686;2023-04-03T15:53:28;7.53;;;1.30;;
42662;SDS011;44330;51.360;6.686;2023-04-03T15:55:53;3.85;;;1.17;;
42662;SDS011;44330;51.360;6.686;2023-04-03T15:58:19;2.85;;;1.38;;
42662;SDS011;44330;51.360;6.686;2023-04-03T16:00:45;2.72;;;1.10;;
42662;SDS011;44330;51.360;6.686;2023-04-03T16:03:17;4.45;;;1.60;;
42662;SDS011;44330;51.360;6.686;2023-04-03T16:05:44;7.57;;;1.65;;
42662;SDS011;44330;51.360;6.686;2023-04-03T16:08:10;7.40;;;1.92;;
42662;SDS011;44330;51.360;6.686;2023-04-03T16:10:36;6.05;;;2.08;;
42662;SDS011;44330;51.360;6.686;2023-04-03T16:13:03;4.50;;;1.52;;
42662;SDS011;44330;51.360;6.686;2023-04-03T16:15:29;10.05;;;2.33;;
42662;SDS011;44330;51.360;6.686;2023-04-03T16:17:55;8.57;;;3.00;;
42662;SDS011;44330;51.360;6.686;2023-04-03T16:20:23;11.60;;;4.47;;
42662;SDS011;44330;51.360;6.686;2023-04-03T16:22:49;6.97;;;2.08;;
42662;SDS011;44330;51.360;6.686;2023-04-03T16:25:15;6.82;;;1.83;;
42662;SDS011;44330;51.360;6.686;2023-04-03T16:27:41;7.22;;;1.65;;
42662;SDS011;44330;51.360;6.686;2023-04-03T16:30:07;6.90;;;3.35;;
42662;SDS011;44330;51.360;6.686;2023-04-03T16:32:33;4.63;;;1.92;;
42662;SDS011;44330;51.360;6.686;2023-04-03T16:34:59;5.20;;;2.17;;
42662;SDS011;44330;51.360;6.686;2023-04-03T16:37:25;3.90;;;1.20;;
42662;SDS011;44330;51.360;6.686;2023-04-03T16:39:51;4.15;;;1.20;;
42662;SDS011;44330;51.360;6.686;2023-04-03T16:42:17;4.10;;;1.25;;